This is the latest recevied weather packets stored in our database for station/object KD8NVS-13. If no packets are shown the sender has not sent any weather packets the latest 10 day(s).
| Time | Temp. | Humidity | Pressure | Rain* | Wind** | Luminosity | Snow |
|---|---|---|---|---|---|---|---|
| 1777332713 | 20.56° C | 82% | 1005.2 hPa | 0.25 mm | - | 3 W/m² | - |
| 1777332409 | 21.11° C | 81% | 1005.2 hPa | 0.25 mm | - | 3 W/m² | - |
| 1777332106 | 22.22° C | 73% | 1005.2 hPa | 0 mm | - | 3 W/m² | - |
| 1777331803 | 22.78° C | 67% | 1005.2 hPa | 0 mm | - | 4 W/m² | - |
| 1777331500 | 23.33° C | 61% | 1005.2 hPa | 0 mm | - | 5 W/m² | - |
| 1777331198 | 23.33° C | 58% | 1005.2 hPa | 0 mm | - | 5 W/m² | - |
| 1777330895 | 23.33° C | 57% | 1004.9 hPa | 0 mm | - | 6 W/m² | - |
| 1777330592 | 23.33° C | 57% | 1004.5 hPa | 0 mm | - | 9 W/m² | - |
| 1777330288 | 23.89° C | 56% | 1004.5 hPa | 0 mm | - | 12 W/m² | - |
| 1777329986 | 23.89° C | 56% | 1004.2 hPa | 0 mm | - | 16 W/m² | - |
| 1777329680 | 23.89° C | 55% | 1004.2 hPa | 0 mm | - | 20 W/m² | - |
| 1777329377 | 23.89° C | 56% | 1003.8 hPa | 0 mm | - | 24 W/m² | - |
| 1777329074 | 23.89° C | 56% | 1004.2 hPa | 0 mm | - | 34 W/m² | - |
| 1777328772 | 23.89° C | 56% | 1004.2 hPa | 0 mm | - | 34 W/m² | - |
| 1777328469 | 23.89° C | 56% | 1004.2 hPa | 0 mm | - | 38 W/m² | - |
| 1777328169 | 24.44° C | 56% | 1004.2 hPa | 0 mm | - | 46 W/m² | - |
| 1777327866 | 24.44° C | 56% | 1003.8 hPa | 0 mm | - | 57 W/m² | - |
| 1777327564 | 24.44° C | 56% | 1004.2 hPa | 0 mm | - | 63 W/m² | - |
| 1777327261 | 24.44° C | 55% | 1004.2 hPa | 0 mm | - | 68 W/m² | - |
| 1777326957 | 24.44° C | 56% | 1004.2 hPa | 0 mm | - | 85 W/m² | - |
| 1777326655 | 24.44° C | 55% | 1004.2 hPa | 0 mm | - | 91 W/m² | - |
| 1777326352 | 24.44° C | 55% | 1003.8 hPa | 0 mm | - | 90 W/m² | - |
| 1777326049 | 25° C | 55% | 1004.2 hPa | 0 mm | - | 88 W/m² | - |
| 1777325747 | 25° C | 54% | 1003.8 hPa | 0 mm | - | 93 W/m² | - |
| 1777325445 | 25° C | 53% | 1004.2 hPa | 0 mm | - | 105 W/m² | - |
* Rain latest hour (hover to see other rain measurements)
** Current wind speed in m/s (hover to see current wind gust speed)